sensor_id;sensor_type;location;lat;lon;timestamp;temperature;humidity
44886;DHT22;36669;51.428;21.162;2022-12-18T00:01:57;-4.80;99.90
44886;DHT22;36669;51.428;21.162;2022-12-18T00:04:25;-4.80;99.90
44886;DHT22;36669;51.428;21.162;2022-12-18T00:06:51;-4.70;99.90
44886;DHT22;36669;51.428;21.162;2022-12-18T00:09:18;-4.70;99.90
44886;DHT22;36669;51.428;21.162;2022-12-18T00:11:43;-4.70;99.90
44886;DHT22;36669;51.428;21.162;2022-12-18T00:14:11;-4.60;99.90
44886;DHT22;36669;51.428;21.162;2022-12-18T00:16:37;-4.60;99.90
44886;DHT22;36669;51.428;21.162;2022-12-18T00:19:04;-4.60;99.90
44886;DHT22;36669;51.428;21.162;2022-12-18T00:21:31;-4.60;99.90
44886;DHT22;36669;51.428;21.162;2022-12-18T00:23:58;-4.60;99.90
44886;DHT22;36669;51.428;21.162;2022-12-18T00:26:26;-4.60;99.90
44886;DHT22;36669;51.428;21.162;2022-12-18T00:28:52;-4.60;99.90
44886;DHT22;36669;51.428;21.162;2022-12-18T00:31:20;-4.60;99.90
44886;DHT22;36669;51.428;21.162;2022-12-18T00:33:47;-4.50;99.90
44886;DHT22;36669;51.428;21.162;2022-12-18T00:36:16;-4.50;99.90
44886;DHT22;36669;51.428;21.162;2022-12-18T00:38:43;-4.50;99.90
44886;DHT22;36669;51.428;21.162;2022-12-18T00:41:10;-4.50;99.90
44886;DHT22;36669;51.428;21.162;2022-12-18T00:43:37;-4.50;99.90
44886;DHT22;36669;51.428;21.162;2022-12-18T00:46:02;-4.50;99.90
44886;DHT22;36669;51.428;21.162;2022-12-18T00:48:28;-4.50;99.90
44886;DHT22;36669;51.428;21.162;2022-12-18T00:50:54;-4.40;99.90
44886;DHT22;36669;51.428;21.162;2022-12-18T00:53:20;-4.40;99.90
44886;DHT22;36669;51.428;21.162;2022-12-18T00:55:46;-4.40;99.90
44886;DHT22;36669;51.428;21.162;2022-12-18T00:58:14;-4.40;99.90
44886;DHT22;36669;51.428;21.162;2022-12-18T01:00:40;-4.40;99.90
44886;DHT22;36669;51.428;21.162;2022-12-18T01:03:06;-4.30;99.90
44886;DHT22;36669;51.428;21.162;2022-12-18T01:05:32;-4.30;99.90
44886;DHT22;36669;51.428;21.162;2022-12-18T01:07:58;-4.30;99.90
44886;DHT22;36669;51.428;21.162;2022-12-18T01:10:24;-4.30;99.90
44886;DHT22;36669;51.428;21.162;2022-12-18T01:12:50;-4.20;99.90
44886;DHT22;36669;51.428;21.162;2022-12-18T01:15:17;-4.10;99.90
44886;DHT22;36669;51.428;21.162;2022-12-18T01:17:43;-4.10;99.90
44886;DHT22;36669;51.428;21.162;2022-12-18T01:20:10;-4.10;99.90
44886;DHT22;36669;51.428;21.162;2022-12-18T01:22:36;-4.10;99.90
44886;DHT22;36669;51.428;21.162;2022-12-18T01:25:02;-4.10;99.90
44886;DHT22;36669;51.428;21.162;2022-12-18T01:27:28;-4.10;99.90
44886;DHT22;36669;51.428;21.162;2022-12-18T01:29:53;-4.00;99.90
44886;DHT22;36669;51.428;21.162;2022-12-18T01:32:19;-4.00;99.90
44886;DHT22;36669;51.428;21.162;2022-12-18T01:34:45;-4.00;99.90
44886;DHT22;36669;51.428;21.162;2022-12-18T01:37:10;-4.00;99.90
44886;DHT22;36669;51.428;21.162;2022-12-18T01:39:36;-4.00;99.90
44886;DHT22;36669;51.428;21.162;2022-12-18T01:42:11;-4.00;99.90
44886;DHT22;36669;51.428;21.162;2022-12-18T01:53:12;-3.90;99.90
44886;DHT22;36669;51.428;21.162;2022-12-18T01:55:43;-3.90;99.90
44886;DHT22;36669;51.428;21.162;2022-12-18T01:58:10;-3.90;99.90
44886;DHT22;36669;51.428;21.162;2022-12-18T02:00:36;-3.80;99.90
44886;DHT22;36669;51.428;21.162;2022-12-18T02:03:01;-3.80;99.90
44886;DHT22;36669;51.428;21.162;2022-12-18T02:08:20;-3.80;99.90
44886;DHT22;36669;51.428;21.162;2022-12-18T02:11:12;-3.70;99.90
44886;DHT22;36669;51.428;21.162;2022-12-18T02:18:37;-3.70;99.90
44886;DHT22;36669;51.428;21.162;2022-12-18T02:28:51;-3.50;99.90
44886;DHT22;36669;51.428;21.162;2022-12-18T02:31:23;-3.60;99.90
44886;DHT22;36669;51.428;21.162;2022-12-18T02:33:50;-3.60;99.90
44886;DHT22;36669;51.428;21.162;2022-12-18T02:36:17;-3.60;99.90
44886;DHT22;36669;51.428;21.162;2022-12-18T02:38:45;-3.50;99.90
44886;DHT22;36669;51.428;21.162;2022-12-18T02:41:13;-3.50;99.90
44886;DHT22;36669;51.428;21.162;2022-12-18T02:43:40;-3.50;99.90
44886;DHT22;36669;51.428;21.162;2022-12-18T02:49:01;-3.50;99.90
44886;DHT22;36669;51.428;21.162;2022-12-18T02:51:51;-3.50;99.90
44886;DHT22;36669;51.428;21.162;2022-12-18T02:58:23;-3.50;99.90
44886;DHT22;36669;51.428;21.162;2022-12-18T03:00:30;-3.50;99.90
44886;DHT22;36669;51.428;21.162;2022-12-18T03:06:06;-3.40;99.90
44886;DHT22;36669;51.428;21.162;2022-12-18T03:08:37;-3.50;99.90
44886;DHT22;36669;51.428;21.162;2022-12-18T03:11:08;-3.50;99.90
44886;DHT22;36669;51.428;21.162;2022-12-18T03:13:36;-3.50;99.90
44886;DHT22;36669;51.428;21.162;2022-12-18T03:16:04;-3.50;99.90
44886;DHT22;36669;51.428;21.162;2022-12-18T03:18:56;-3.50;99.90
44886;DHT22;36669;51.428;21.162;2022-12-18T03:21:28;-3.50;99.90
44886;DHT22;36669;51.428;21.162;2022-12-18T03:23:55;-3.50;99.90
44886;DHT22;36669;51.428;21.162;2022-12-18T03:26:24;-3.50;99.90
44886;DHT22;36669;51.428;21.162;2022-12-18T03:28:57;-3.50;99.90
44886;DHT22;36669;51.428;21.162;2022-12-18T03:31:26;-3.50;99.90
44886;DHT22;36669;51.428;21.162;2022-12-18T03:36:20;-3.50;99.90
44886;DHT22;36669;51.428;21.162;2022-12-18T03:38:46;-3.60;99.90
44886;DHT22;36669;51.428;21.162;2022-12-18T03:41:36;-3.60;99.90
44886;DHT22;36669;51.428;21.162;2022-12-18T03:44:36;-3.60;99.90
44886;DHT22;36669;51.428;21.162;2022-12-18T03:47:29;-3.60;99.90
44886;DHT22;36669;51.428;21.162;2022-12-18T03:50:13;-3.60;99.90
44886;DHT22;36669;51.428;21.162;2022-12-18T03:55:25;-3.60;99.90
44886;DHT22;36669;51.428;21.162;2022-12-18T03:57:53;-3.60;99.90
44886;DHT22;36669;51.428;21.162;2022-12-18T04:00:19;-3.70;99.90
44886;DHT22;36669;51.428;21.162;2022-12-18T04:02:50;-3.70;99.90
44886;DHT22;36669;51.428;21.162;2022-12-18T04:05:17;-3.70;99.90
44886;DHT22;36669;51.428;21.162;2022-12-18T04:07:47;-3.70;99.90
44886;DHT22;36669;51.428;21.162;2022-12-18T04:10:14;-3.80;99.90
44886;DHT22;36669;51.428;21.162;2022-12-18T04:12:41;-3.80;99.90
44886;DHT22;36669;51.428;21.162;2022-12-18T04:15:07;-3.80;99.90
44886;DHT22;36669;51.428;21.162;2022-12-18T04:17:33;-3.80;99.90
44886;DHT22;36669;51.428;21.162;2022-12-18T04:19:59;-3.80;99.90
44886;DHT22;36669;51.428;21.162;2022-12-18T04:22:25;-3.80;99.90
44886;DHT22;36669;51.428;21.162;2022-12-18T04:24:50;-3.80;99.90
44886;DHT22;36669;51.428;21.162;2022-12-18T04:27:16;-3.90;99.90
44886;DHT22;36669;51.428;21.162;2022-12-18T04:29:41;-3.90;99.90
44886;DHT22;36669;51.428;21.162;2022-12-18T04:32:07;-3.90;99.90
44886;DHT22;36669;51.428;21.162;2022-12-18T04:34:33;-3.90;99.90
44886;DHT22;36669;51.428;21.162;2022-12-18T04:36:59;-3.90;99.90
44886;DHT22;36669;51.428;21.162;2022-12-18T04:39:25;-3.90;99.90
44886;DHT22;36669;51.428;21.162;2022-12-18T04:41:50;-3.90;99.90
44886;DHT22;36669;51.428;21.162;2022-12-18T04:44:16;-3.90;99.90
44886;DHT22;36669;51.428;21.162;2022-12-18T04:46:41;-4.00;99.90
44886;DHT22;36669;51.428;21.162;2022-12-18T04:49:07;-3.90;99.90
44886;DHT22;36669;51.428;21.162;2022-12-18T04:51:33;-4.00;99.90
44886;DHT22;36669;51.428;21.162;2022-12-18T04:53:58;-4.00;99.90
44886;DHT22;36669;51.428;21.162;2022-12-18T04:56:24;-4.00;99.90
44886;DHT22;36669;51.428;21.162;2022-12-18T04:58:49;-4.10;99.90
44886;DHT22;36669;51.428;21.162;2022-12-18T05:01:16;-4.10;99.90
44886;DHT22;36669;51.428;21.162;2022-12-18T05:03:42;-4.10;99.90
44886;DHT22;36669;51.428;21.162;2022-12-18T05:06:09;-4.10;99.90
44886;DHT22;36669;51.428;21.162;2022-12-18T05:08:34;-4.10;99.90
44886;DHT22;36669;51.428;21.162;2022-12-18T05:11:14;-4.10;99.90
44886;DHT22;36669;51.428;21.162;2022-12-18T05:13:44;-4.10;99.90
44886;DHT22;36669;51.428;21.162;2022-12-18T05:16:10;-4.10;99.90
44886;DHT22;36669;51.428;21.162;2022-12-18T05:18:36;-4.10;99.90
44886;DHT22;36669;51.428;21.162;2022-12-18T05:21:02;-4.00;99.90
44886;DHT22;36669;51.428;21.162;2022-12-18T05:23:28;-4.10;99.90
44886;DHT22;36669;51.428;21.162;2022-12-18T05:25:56;-4.10;99.90
44886;DHT22;36669;51.428;21.162;2022-12-18T05:28:23;-4.10;99.90
44886;DHT22;36669;51.428;21.162;2022-12-18T05:30:57;-4.10;99.90
44886;DHT22;36669;51.428;21.162;2022-12-18T05:33:24;-4.00;99.90
44886;DHT22;36669;51.428;21.162;2022-12-18T05:35:51;-4.10;99.90
44886;DHT22;36669;51.428;21.162;2022-12-18T05:38:18;-4.10;99.90
44886;DHT22;36669;51.428;21.162;2022-12-18T05:40:43;-4.10;99.90
44886;DHT22;36669;51.428;21.162;2022-12-18T05:43:10;-4.10;99.90
44886;DHT22;36669;51.428;21.162;2022-12-18T05:45:39;-4.10;99.90
44886;DHT22;36669;51.428;21.162;2022-12-18T05:48:05;-4.10;99.90
44886;DHT22;36669;51.428;21.162;2022-12-18T05:50:34;-4.10;99.90
44886;DHT22;36669;51.428;21.162;2022-12-18T05:53:00;-4.10;99.90
44886;DHT22;36669;51.428;21.162;2022-12-18T05:55:25;-4.20;99.90
44886;DHT22;36669;51.428;21.162;2022-12-18T05:57:51;-4.20;99.90
44886;DHT22;36669;51.428;21.162;2022-12-18T06:00:17;-4.10;99.90
44886;DHT22;36669;51.428;21.162;2022-12-18T06:02:46;-4.10;99.90
44886;DHT22;36669;51.428;21.162;2022-12-18T06:05:12;-4.10;99.90
44886;DHT22;36669;51.428;21.162;2022-12-18T06:07:38;-4.20;99.90
44886;DHT22;36669;51.428;21.162;2022-12-18T06:10:04;-4.20;99.90
44886;DHT22;36669;51.428;21.162;2022-12-18T06:12:29;-4.20;99.90
44886;DHT22;36669;51.428;21.162;2022-12-18T06:14:55;-4.20;99.90
44886;DHT22;36669;51.428;21.162;2022-12-18T06:17:21;-4.10;99.90
44886;DHT22;36669;51.428;21.162;2022-12-18T06:19:46;-4.20;99.90
44886;DHT22;36669;51.428;21.162;2022-12-18T06:22:12;-4.20;99.90
44886;DHT22;36669;51.428;21.162;2022-12-18T06:24:38;-4.20;99.90
44886;DHT22;36669;51.428;21.162;2022-12-18T06:27:03;-4.20;99.90
44886;DHT22;36669;51.428;21.162;2022-12-18T06:29:29;-4.20;99.90
44886;DHT22;36669;51.428;21.162;2022-12-18T06:31:54;-4.20;99.90
44886;DHT22;36669;51.428;21.162;2022-12-18T06:34:20;-4.30;99.90
44886;DHT22;36669;51.428;21.162;2022-12-18T06:36:45;-4.30;99.90
44886;DHT22;36669;51.428;21.162;2022-12-18T06:39:11;-4.30;99.90
44886;DHT22;36669;51.428;21.162;2022-12-18T06:41:37;-4.30;99.90
44886;DHT22;36669;51.428;21.162;2022-12-18T06:44:02;-4.20;99.90
44886;DHT22;36669;51.428;21.162;2022-12-18T06:46:28;-4.20;99.90
44886;DHT22;36669;51.428;21.162;2022-12-18T06:48:54;-4.20;99.90
44886;DHT22;36669;51.428;21.162;2022-12-18T06:51:21;-4.30;99.90
44886;DHT22;36669;51.428;21.162;2022-12-18T06:53:47;-4.30;99.90
44886;DHT22;36669;51.428;21.162;2022-12-18T06:56:12;-4.30;99.90
44886;DHT22;36669;51.428;21.162;2022-12-18T06:58:39;-4.30;99.90
44886;DHT22;36669;51.428;21.162;2022-12-18T07:01:06;-4.30;99.90
44886;DHT22;36669;51.428;21.162;2022-12-18T07:03:32;-4.30;99.90
44886;DHT22;36669;51.428;21.162;2022-12-18T07:05:58;-4.30;99.90
44886;DHT22;36669;51.428;21.162;2022-12-18T07:08:24;-4.40;99.90
44886;DHT22;36669;51.428;21.162;2022-12-18T07:10:50;-4.40;99.90
44886;DHT22;36669;51.428;21.162;2022-12-18T07:13:16;-4.40;99.90
44886;DHT22;36669;51.428;21.162;2022-12-18T07:15:43;-4.40;99.90
44886;DHT22;36669;51.428;21.162;2022-12-18T07:18:09;-4.40;99.90
44886;DHT22;36669;51.428;21.162;2022-12-18T07:20:34;-4.40;99.90
44886;DHT22;36669;51.428;21.162;2022-12-18T07:23:02;-4.40;99.90
44886;DHT22;36669;51.428;21.162;2022-12-18T07:36:37;-4.40;99.90
44886;DHT22;36669;51.428;21.162;2022-12-18T07:39:03;-4.30;99.90
44886;DHT22;36669;51.428;21.162;2022-12-18T07:41:28;-4.30;99.90
44886;DHT22;36669;51.428;21.162;2022-12-18T07:43:54;-4.30;99.90
44886;DHT22;36669;51.428;21.162;2022-12-18T07:46:19;-4.20;99.90
44886;DHT22;36669;51.428;21.162;2022-12-18T07:48:45;-4.20;99.90
44886;DHT22;36669;51.428;21.162;2022-12-18T07:51:14;-4.20;99.90
44886;DHT22;36669;51.428;21.162;2022-12-18T07:53:40;-4.20;99.90
44886;DHT22;36669;51.428;21.162;2022-12-18T07:56:08;-4.10;99.90
44886;DHT22;36669;51.428;21.162;2022-12-18T07:58:36;-4.10;99.90
44886;DHT22;36669;51.428;21.162;2022-12-18T08:01:07;-4.00;99.90
44886;DHT22;36669;51.428;21.162;2022-12-18T08:03:33;-4.00;99.90
44886;DHT22;36669;51.428;21.162;2022-12-18T08:06:03;-4.00;99.90
44886;DHT22;36669;51.428;21.162;2022-12-18T08:08:29;-4.00;99.90
44886;DHT22;36669;51.428;21.162;2022-12-18T08:10:55;-3.90;99.90
44886;DHT22;36669;51.428;21.162;2022-12-18T08:13:22;-3.90;99.90
44886;DHT22;36669;51.428;21.162;2022-12-18T08:15:56;-3.80;99.90
44886;DHT22;36669;51.428;21.162;2022-12-18T08:18:22;-3.80;99.90
44886;DHT22;36669;51.428;21.162;2022-12-18T08:20:48;-3.70;99.90
44886;DHT22;36669;51.428;21.162;2022-12-18T08:23:13;-3.70;99.90
44886;DHT22;36669;51.428;21.162;2022-12-18T08:25:39;-3.70;99.90
44886;DHT22;36669;51.428;21.162;2022-12-18T08:28:05;-3.80;99.90
44886;DHT22;36669;51.428;21.162;2022-12-18T08:30:30;-3.80;99.90
44886;DHT22;36669;51.428;21.162;2022-12-18T08:32:56;-3.80;99.90
44886;DHT22;36669;51.428;21.162;2022-12-18T08:35:21;-3.70;99.90
44886;DHT22;36669;51.428;21.162;2022-12-18T08:37:47;-3.60;99.90
44886;DHT22;36669;51.428;21.162;2022-12-18T08:40:13;-3.60;99.90
44886;DHT22;36669;51.428;21.162;2022-12-18T08:42:38;-3.70;99.90
44886;DHT22;36669;51.428;21.162;2022-12-18T08:45:22;-3.60;99.90
44886;DHT22;36669;51.428;21.162;2022-12-18T08:47:50;-3.60;99.90
44886;DHT22;36669;51.428;21.162;2022-12-18T08:50:15;-3.50;99.90
44886;DHT22;36669;51.428;21.162;2022-12-18T08:52:41;-3.50;99.90
44886;DHT22;36669;51.428;21.162;2022-12-18T08:55:08;-3.60;99.90
44886;DHT22;36669;51.428;21.162;2022-12-18T08:57:33;-3.50;99.90
44886;DHT22;36669;51.428;21.162;2022-12-18T08:59:59;-3.50;99.90
44886;DHT22;36669;51.428;21.162;2022-12-18T09:02:25;-3.50;99.90
44886;DHT22;36669;51.428;21.162;2022-12-18T09:04:50;-3.50;99.90
44886;DHT22;36669;51.428;21.162;2022-12-18T09:07:16;-3.50;99.90
44886;DHT22;36669;51.428;21.162;2022-12-18T09:09:41;-3.50;99.90
44886;DHT22;36669;51.428;21.162;2022-12-18T09:12:07;-3.50;99.90
44886;DHT22;36669;51.428;21.162;2022-12-18T09:14:33;-3.50;99.90
44886;DHT22;36669;51.428;21.162;2022-12-18T09:16:58;-3.50;99.90
44886;DHT22;36669;51.428;21.162;2022-12-18T09:19:24;-3.50;99.90
44886;DHT22;36669;51.428;21.162;2022-12-18T09:21:49;-3.40;99.90
44886;DHT22;36669;51.428;21.162;2022-12-18T09:24:15;-3.40;99.90
44886;DHT22;36669;51.428;21.162;2022-12-18T09:26:41;-3.40;99.90
44886;DHT22;36669;51.428;21.162;2022-12-18T09:29:07;-3.30;99.90
44886;DHT22;36669;51.428;21.162;2022-12-18T09:31:33;-3.30;99.90
44886;DHT22;36669;51.428;21.162;2022-12-18T09:33:59;-3.20;99.90
44886;DHT22;36669;51.428;21.162;2022-12-18T09:36:25;-3.20;99.90
44886;DHT22;36669;51.428;21.162;2022-12-18T09:38:50;-3.20;99.90
44886;DHT22;36669;51.428;21.162;2022-12-18T09:46:45;-3.30;99.90
44886;DHT22;36669;51.428;21.162;2022-12-18T09:49:17;-3.20;99.90
44886;DHT22;36669;51.428;21.162;2022-12-18T09:51:57;-2.90;99.90
44886;DHT22;36669;51.428;21.162;2022-12-18T09:54:53;-2.90;99.90
44886;DHT22;36669;51.428;21.162;2022-12-18T09:57:23;-2.80;99.90
44886;DHT22;36669;51.428;21.162;2022-12-18T10:00:04;-3.10;99.90
44886;DHT22;36669;51.428;21.162;2022-12-18T10:02:35;-3.20;99.90
44886;DHT22;36669;51.428;21.162;2022-12-18T10:05:16;-3.30;99.90
44886;DHT22;36669;51.428;21.162;2022-12-18T10:11:36;-3.40;99.90
44886;DHT22;36669;51.428;21.162;2022-12-18T10:16:44;-3.30;99.90
44886;DHT22;36669;51.428;21.162;2022-12-18T10:19:36;-3.40;99.90
44886;DHT22;36669;51.428;21.162;2022-12-18T10:28:00;-3.40;99.90
44886;DHT22;36669;51.428;21.162;2022-12-18T10:30:32;-3.40;99.90
44886;DHT22;36669;51.428;21.162;2022-12-18T10:33:04;-3.30;99.90
44886;DHT22;36669;51.428;21.162;2022-12-18T10:35:29;-3.30;99.90
44886;DHT22;36669;51.428;21.162;2022-12-18T10:38:20;-3.30;99.90
44886;DHT22;36669;51.428;21.162;2022-12-18T10:40:54;-3.30;99.90
44886;DHT22;36669;51.428;21.162;2022-12-18T10:48:36;-3.30;99.90
44886;DHT22;36669;51.428;21.162;2022-12-18T10:51:02;-3.30;99.90
44886;DHT22;36669;51.428;21.162;2022-12-18T10:53:30;-3.20;99.90
44886;DHT22;36669;51.428;21.162;2022-12-18T10:56:04;-3.20;99.90
44886;DHT22;36669;51.428;21.162;2022-12-18T10:58:37;-3.20;99.90
44886;DHT22;36669;51.428;21.162;2022-12-18T11:06:18;-3.10;99.90
44886;DHT22;36669;51.428;21.162;2022-12-18T11:09:02;-3.10;99.90
44886;DHT22;36669;51.428;21.162;2022-12-18T11:11:29;-3.20;99.90
44886;DHT22;36669;51.428;21.162;2022-12-18T11:14:16;-3.20;99.90
44886;DHT22;36669;51.428;21.162;2022-12-18T11:16:46;-3.20;99.90
44886;DHT22;36669;51.428;21.162;2022-12-18T11:21:56;-3.10;99.90
44886;DHT22;36669;51.428;21.162;2022-12-18T11:24:32;-3.20;99.90
44886;DHT22;36669;51.428;21.162;2022-12-18T11:27:04;-3.10;99.90
44886;DHT22;36669;51.428;21.162;2022-12-18T11:29:38;-3.10;99.90
44886;DHT22;36669;51.428;21.162;2022-12-18T11:32:37;-3.10;99.90
44886;DHT22;36669;51.428;21.162;2022-12-18T11:35:24;-3.00;99.90
44886;DHT22;36669;51.428;21.162;2022-12-18T11:37:57;-3.00;99.90
44886;DHT22;36669;51.428;21.162;2022-12-18T11:40:44;-2.90;99.90
44886;DHT22;36669;51.428;21.162;2022-12-18T11:43:31;-2.90;99.90
44886;DHT22;36669;51.428;21.162;2022-12-18T11:46:15;-2.80;99.90
44886;DHT22;36669;51.428;21.162;2022-12-18T11:48:51;-2.90;99.90
44886;DHT22;36669;51.428;21.162;2022-12-18T11:51:27;-3.00;99.90
44886;DHT22;36669;51.428;21.162;2022-12-18T11:53:53;-3.00;99.90
44886;DHT22;36669;51.428;21.162;2022-12-18T11:59:39;-2.80;99.90
44886;DHT22;36669;51.428;21.162;2022-12-18T12:07:51;-3.00;99.90
44886;DHT22;36669;51.428;21.162;2022-12-18T12:18:25;-3.00;99.90
44886;DHT22;36669;51.428;21.162;2022-12-18T12:21:11;-3.20;99.90
44886;DHT22;36669;51.428;21.162;2022-12-18T12:26:25;-3.20;99.90
44886;DHT22;36669;51.428;21.162;2022-12-18T12:37:01;-3.30;99.90
44886;DHT22;36669;51.428;21.162;2022-12-18T12:39:40;-3.30;99.90
44886;DHT22;36669;51.428;21.162;2022-12-18T12:45:18;-3.20;99.90
44886;DHT22;36669;51.428;21.162;2022-12-18T12:47:46;-3.20;99.90
44886;DHT22;36669;51.428;21.162;2022-12-18T12:50:18;-3.20;99.90
44886;DHT22;36669;51.428;21.162;2022-12-18T12:52:55;-3.20;99.90
44886;DHT22;36669;51.428;21.162;2022-12-18T12:55:23;-3.30;99.90
44886;DHT22;36669;51.428;21.162;2022-12-18T12:57:59;-3.30;99.90
44886;DHT22;36669;51.428;21.162;2022-12-18T13:00:35;-3.30;99.90
44886;DHT22;36669;51.428;21.162;2022-12-18T13:03:19;-3.30;99.90
44886;DHT22;36669;51.428;21.162;2022-12-18T13:05:59;-3.30;99.90
44886;DHT22;36669;51.428;21.162;2022-12-18T13:08:30;-3.30;99.90
44886;DHT22;36669;51.428;21.162;2022-12-18T13:10:57;-3.20;99.90
44886;DHT22;36669;51.428;21.162;2022-12-18T13:13:52;-3.40;99.90
44886;DHT22;36669;51.428;21.162;2022-12-18T13:16:20;-3.40;99.90
44886;DHT22;36669;51.428;21.162;2022-12-18T13:18:54;-3.50;99.90
44886;DHT22;36669;51.428;21.162;2022-12-18T13:21:29;-3.50;99.90
44886;DHT22;36669;51.428;21.162;2022-12-18T13:23:55;-3.40;99.90
44886;DHT22;36669;51.428;21.162;2022-12-18T13:34:18;-3.60;99.90
44886;DHT22;36669;51.428;21.162;2022-12-18T13:36:44;-3.70;99.90
44886;DHT22;36669;51.428;21.162;2022-12-18T13:41:50;-3.70;99.90
44886;DHT22;36669;51.428;21.162;2022-12-18T13:46:54;-3.70;99.90
44886;DHT22;36669;51.428;21.162;2022-12-18T13:49:41;-3.70;99.90
44886;DHT22;36669;51.428;21.162;2022-12-18T13:52:28;-3.70;99.90
44886;DHT22;36669;51.428;21.162;2022-12-18T13:54:59;-3.70;99.90
44886;DHT22;36669;51.428;21.162;2022-12-18T13:57:29;-3.70;99.90
44886;DHT22;36669;51.428;21.162;2022-12-18T13:59:57;-3.70;99.90
44886;DHT22;36669;51.428;21.162;2022-12-18T14:02:25;-3.70;99.90
44886;DHT22;36669;51.428;21.162;2022-12-18T14:04:52;-3.70;99.90
44886;DHT22;36669;51.428;21.162;2022-12-18T14:07:24;-3.70;99.90
44886;DHT22;36669;51.428;21.162;2022-12-18T14:09:52;-3.70;99.90
44886;DHT22;36669;51.428;21.162;2022-12-18T14:12:24;-3.70;99.90
44886;DHT22;36669;51.428;21.162;2022-12-18T14:17:57;-3.70;99.90
44886;DHT22;36669;51.428;21.162;2022-12-18T14:20:28;-3.70;99.90
44886;DHT22;36669;51.428;21.162;2022-12-18T14:22:56;-3.70;99.90
44886;DHT22;36669;51.428;21.162;2022-12-18T14:25:27;-3.80;99.90
44886;DHT22;36669;51.428;21.162;2022-12-18T14:28:12;-3.80;99.90
44886;DHT22;36669;51.428;21.162;2022-12-18T14:30:43;-3.90;99.90
44886;DHT22;36669;51.428;21.162;2022-12-18T14:33:11;-4.00;99.90
44886;DHT22;36669;51.428;21.162;2022-12-18T14:35:43;-4.00;99.90
44886;DHT22;36669;51.428;21.162;2022-12-18T14:38:31;-4.00;99.90
44886;DHT22;36669;51.428;21.162;2022-12-18T14:43:33;-4.00;99.90
44886;DHT22;36669;51.428;21.162;2022-12-18T14:45:59;-4.00;99.90
44886;DHT22;36669;51.428;21.162;2022-12-18T14:48:41;-4.00;99.90
44886;DHT22;36669;51.428;21.162;2022-12-18T14:56:25;-4.10;99.90
44886;DHT22;36669;51.428;21.162;2022-12-18T14:59:15;-4.10;99.90
44886;DHT22;36669;51.428;21.162;2022-12-18T15:04:45;-4.20;99.90
44886;DHT22;36669;51.428;21.162;2022-12-18T15:09:37;-4.20;99.90
44886;DHT22;36669;51.428;21.162;2022-12-18T15:12:03;-4.10;99.90
44886;DHT22;36669;51.428;21.162;2022-12-18T15:14:37;-4.20;99.90
44886;DHT22;36669;51.428;21.162;2022-12-18T15:17:13;-4.20;99.90
44886;DHT22;36669;51.428;21.162;2022-12-18T15:19:41;-4.20;99.90
44886;DHT22;36669;51.428;21.162;2022-12-18T15:22:32;-4.10;99.90
44886;DHT22;36669;51.428;21.162;2022-12-18T15:24:59;-4.10;99.90
44886;DHT22;36669;51.428;21.162;2022-12-18T15:27:34;-4.10;99.90
44886;DHT22;36669;51.428;21.162;2022-12-18T15:32:33;-4.10;99.90
44886;DHT22;36669;51.428;21.162;2022-12-18T15:37:33;-4.10;99.90
44886;DHT22;36669;51.428;21.162;2022-12-18T15:39:58;-4.20;99.90
44886;DHT22;36669;51.428;21.162;2022-12-18T15:42:24;-4.20;99.90
44886;DHT22;36669;51.428;21.162;2022-12-18T15:45:12;-4.20;99.90
44886;DHT22;36669;51.428;21.162;2022-12-18T15:47:38;-4.20;99.90
44886;DHT22;36669;51.428;21.162;2022-12-18T15:50:04;-4.20;99.90
44886;DHT22;36669;51.428;21.162;2022-12-18T15:52:32;-4.10;99.90
44886;DHT22;36669;51.428;21.162;2022-12-18T15:55:02;-4.20;99.90
44886;DHT22;36669;51.428;21.162;2022-12-18T15:57:46;-4.20;99.90
44886;DHT22;36669;51.428;21.162;2022-12-18T16:00:12;-4.10;99.90
44886;DHT22;36669;51.428;21.162;2022-12-18T16:02:38;-4.10;99.90
44886;DHT22;36669;51.428;21.162;2022-12-18T16:05:13;-4.20;99.90
44886;DHT22;36669;51.428;21.162;2022-12-18T16:07:39;-4.20;99.90
44886;DHT22;36669;51.428;21.162;2022-12-18T16:10:05;-4.20;99.90
44886;DHT22;36669;51.428;21.162;2022-12-18T16:12:31;-4.10;99.90
44886;DHT22;36669;51.428;21.162;2022-12-18T16:14:57;-4.20;99.90
44886;DHT22;36669;51.428;21.162;2022-12-18T16:17:22;-4.20;99.90
44886;DHT22;36669;51.428;21.162;2022-12-18T16:19:48;-4.20;99.90
44886;DHT22;36669;51.428;21.162;2022-12-18T16:22:25;-4.20;99.90
44886;DHT22;36669;51.428;21.162;2022-12-18T16:24:52;-4.20;99.90
44886;DHT22;36669;51.428;21.162;2022-12-18T16:27:18;-4.20;99.90
44886;DHT22;36669;51.428;21.162;2022-12-18T16:29:45;-4.20;99.90
44886;DHT22;36669;51.428;21.162;2022-12-18T16:32:13;-4.20;99.90
44886;DHT22;36669;51.428;21.162;2022-12-18T16:34:39;-4.30;99.90
44886;DHT22;36669;51.428;21.162;2022-12-18T16:37:07;-4.30;99.90
44886;DHT22;36669;51.428;21.162;2022-12-18T16:39:33;-4.30;99.90
44886;DHT22;36669;51.428;21.162;2022-12-18T16:42:03;-4.30;99.90
44886;DHT22;36669;51.428;21.162;2022-12-18T16:44:30;-4.30;99.90
44886;DHT22;36669;51.428;21.162;2022-12-18T16:46:55;-4.30;99.90
44886;DHT22;36669;51.428;21.162;2022-12-18T16:49:27;-4.30;99.90
44886;DHT22;36669;51.428;21.162;2022-12-18T16:51:53;-4.30;99.90
44886;DHT22;36669;51.428;21.162;2022-12-18T16:54:19;-4.30;99.90
44886;DHT22;36669;51.428;21.162;2022-12-18T16:56:44;-4.30;99.90
44886;DHT22;36669;51.428;21.162;2022-12-18T16:59:12;-4.40;99.90
44886;DHT22;36669;51.428;21.162;2022-12-18T17:01:38;-4.40;99.90
44886;DHT22;36669;51.428;21.162;2022-12-18T17:04:05;-4.40;99.90
44886;DHT22;36669;51.428;21.162;2022-12-18T17:06:33;-4.40;99.90
44886;DHT22;36669;51.428;21.162;2022-12-18T17:09:05;-4.40;99.90
44886;DHT22;36669;51.428;21.162;2022-12-18T17:11:32;-4.40;99.90
44886;DHT22;36669;51.428;21.162;2022-12-18T17:13:59;-4.30;99.90
44886;DHT22;36669;51.428;21.162;2022-12-18T17:16:25;-4.30;99.90
44886;DHT22;36669;51.428;21.162;2022-12-18T17:18:54;-4.20;99.90
44886;DHT22;36669;51.428;21.162;2022-12-18T17:21:19;-4.20;99.90
44886;DHT22;36669;51.428;21.162;2022-12-18T17:23:45;-4.30;99.90
44886;DHT22;36669;51.428;21.162;2022-12-18T17:26:11;-4.30;99.90
44886;DHT22;36669;51.428;21.162;2022-12-18T17:28:38;-4.30;99.90
44886;DHT22;36669;51.428;21.162;2022-12-18T17:31:22;-4.40;99.90
44886;DHT22;36669;51.428;21.162;2022-12-18T17:33:48;-4.40;99.90
44886;DHT22;36669;51.428;21.162;2022-12-18T17:36:14;-4.40;99.90
44886;DHT22;36669;51.428;21.162;2022-12-18T17:38:49;-4.40;99.90
44886;DHT22;36669;51.428;21.162;2022-12-18T17:41:15;-4.40;99.90
44886;DHT22;36669;51.428;21.162;2022-12-18T17:43:41;-4.40;99.90
44886;DHT22;36669;51.428;21.162;2022-12-18T17:46:12;-4.50;99.90
44886;DHT22;36669;51.428;21.162;2022-12-18T17:48:39;-4.50;99.90
44886;DHT22;36669;51.428;21.162;2022-12-18T17:51:06;-4.50;99.90
44886;DHT22;36669;51.428;21.162;2022-12-18T17:53:33;-4.50;99.90
44886;DHT22;36669;51.428;21.162;2022-12-18T17:55:59;-4.50;99.90